sensor_id;sensor_type;location;lat;lon;timestamp;temperature;humidity
51615;DHT22;37695;52.960;6.188;2022-08-03T00:01:05;19.30;99.90
51615;DHT22;37695;52.960;6.188;2022-08-03T00:03:30;19.30;99.90
51615;DHT22;37695;52.960;6.188;2022-08-03T00:05:56;19.30;99.90
51615;DHT22;37695;52.960;6.188;2022-08-03T00:08:22;19.30;99.90
51615;DHT22;37695;52.960;6.188;2022-08-03T00:10:47;19.20;99.90
51615;DHT22;37695;52.960;6.188;2022-08-03T00:13:13;19.20;99.90
51615;DHT22;37695;52.960;6.188;2022-08-03T00:15:40;19.10;99.90
51615;DHT22;37695;52.960;6.188;2022-08-03T00:18:07;19.10;99.90
51615;DHT22;37695;52.960;6.188;2022-08-03T00:20:32;19.10;99.90
51615;DHT22;37695;52.960;6.188;2022-08-03T00:22:58;19.10;99.90
51615;DHT22;37695;52.960;6.188;2022-08-03T00:25:24;19.10;99.90
51615;DHT22;37695;52.960;6.188;2022-08-03T00:27:49;19.10;99.90
51615;DHT22;37695;52.960;6.188;2022-08-03T00:30:15;19.10;99.90
51615;DHT22;37695;52.960;6.188;2022-08-03T00:32:40;19.00;99.90
51615;DHT22;37695;52.960;6.188;2022-08-03T00:35:06;19.00;99.90
51615;DHT22;37695;52.960;6.188;2022-08-03T00:37:32;19.00;99.90
51615;DHT22;37695;52.960;6.188;2022-08-03T00:39:58;19.00;99.90
51615;DHT22;37695;52.960;6.188;2022-08-03T00:42:23;18.90;99.90
51615;DHT22;37695;52.960;6.188;2022-08-03T00:44:49;18.90;99.90
51615;DHT22;37695;52.960;6.188;2022-08-03T00:47:14;18.90;99.90
51615;DHT22;37695;52.960;6.188;2022-08-03T00:49:41;18.80;99.90
51615;DHT22;37695;52.960;6.188;2022-08-03T00:52:10;18.80;99.90
51615;DHT22;37695;52.960;6.188;2022-08-03T00:54:38;18.80;99.90
51615;DHT22;37695;52.960;6.188;2022-08-03T00:57:05;18.90;99.90
51615;DHT22;37695;52.960;6.188;2022-08-03T00:59:31;18.80;99.90
51615;DHT22;37695;52.960;6.188;2022-08-03T01:01:57;18.80;99.90
51615;DHT22;37695;52.960;6.188;2022-08-03T01:04:22;18.80;99.90
51615;DHT22;37695;52.960;6.188;2022-08-03T01:09:45;18.80;99.90
51615;DHT22;37695;52.960;6.188;2022-08-03T01:15:23;18.70;99.90
51615;DHT22;37695;52.960;6.188;2022-08-03T01:18:00;18.70;99.90
51615;DHT22;37695;52.960;6.188;2022-08-03T01:20:32;18.70;99.90
51615;DHT22;37695;52.960;6.188;2022-08-03T01:31:20;18.70;99.90
51615;DHT22;37695;52.960;6.188;2022-08-03T01:33:52;18.70;99.90
51615;DHT22;37695;52.960;6.188;2022-08-03T01:36:23;18.70;99.90
51615;DHT22;37695;52.960;6.188;2022-08-03T01:38:53;18.70;99.90
51615;DHT22;37695;52.960;6.188;2022-08-03T01:41:21;18.70;99.90
51615;DHT22;37695;52.960;6.188;2022-08-03T01:43:50;18.60;99.90
51615;DHT22;37695;52.960;6.188;2022-08-03T01:46:17;18.60;99.90
51615;DHT22;37695;52.960;6.188;2022-08-03T01:48:46;18.60;99.90
51615;DHT22;37695;52.960;6.188;2022-08-03T01:51:14;18.60;99.90
51615;DHT22;37695;52.960;6.188;2022-08-03T01:53:40;18.60;99.90
51615;DHT22;37695;52.960;6.188;2022-08-03T01:56:09;18.60;99.90
51615;DHT22;37695;52.960;6.188;2022-08-03T01:58:37;18.60;99.90
51615;DHT22;37695;52.960;6.188;2022-08-03T02:01:04;18.60;99.90
51615;DHT22;37695;52.960;6.188;2022-08-03T02:03:33;18.60;99.90
51615;DHT22;37695;52.960;6.188;2022-08-03T02:06:01;18.60;99.90
51615;DHT22;37695;52.960;6.188;2022-08-03T02:08:27;18.50;99.90
51615;DHT22;37695;52.960;6.188;2022-08-03T02:10:56;18.50;99.90
51615;DHT22;37695;52.960;6.188;2022-08-03T02:13:23;18.50;99.90
51615;DHT22;37695;52.960;6.188;2022-08-03T02:15:51;18.50;99.90
51615;DHT22;37695;52.960;6.188;2022-08-03T02:18:18;18.50;99.90
51615;DHT22;37695;52.960;6.188;2022-08-03T02:20:46;18.50;99.90
51615;DHT22;37695;52.960;6.188;2022-08-03T02:23:14;18.40;99.90
51615;DHT22;37695;52.960;6.188;2022-08-03T02:25:50;18.40;99.90
51615;DHT22;37695;52.960;6.188;2022-08-03T02:28:19;18.40;99.90
51615;DHT22;37695;52.960;6.188;2022-08-03T02:30:50;18.40;99.90
51615;DHT22;37695;52.960;6.188;2022-08-03T02:33:20;18.40;99.90
51615;DHT22;37695;52.960;6.188;2022-08-03T02:35:48;18.40;99.90
51615;DHT22;37695;52.960;6.188;2022-08-03T02:38:18;18.40;99.90
51615;DHT22;37695;52.960;6.188;2022-08-03T02:40:44;18.40;99.90
51615;DHT22;37695;52.960;6.188;2022-08-03T02:43:19;18.30;99.90
51615;DHT22;37695;52.960;6.188;2022-08-03T02:45:47;18.30;99.90
51615;DHT22;37695;52.960;6.188;2022-08-03T02:48:22;18.30;99.90
51615;DHT22;37695;52.960;6.188;2022-08-03T02:50:51;18.30;99.90
51615;DHT22;37695;52.960;6.188;2022-08-03T02:53:17;18.30;99.90
51615;DHT22;37695;52.960;6.188;2022-08-03T02:55:45;18.30;99.90
51615;DHT22;37695;52.960;6.188;2022-08-03T02:58:13;18.30;99.90
51615;DHT22;37695;52.960;6.188;2022-08-03T03:00:43;18.30;99.90
51615;DHT22;37695;52.960;6.188;2022-08-03T03:03:09;18.30;99.90
51615;DHT22;37695;52.960;6.188;2022-08-03T03:05:36;18.20;99.90
51615;DHT22;37695;52.960;6.188;2022-08-03T03:08:02;18.20;99.90
51615;DHT22;37695;52.960;6.188;2022-08-03T03:10:28;18.20;99.90
51615;DHT22;37695;52.960;6.188;2022-08-03T03:12:56;18.20;99.90
51615;DHT22;37695;52.960;6.188;2022-08-03T03:15:26;18.20;99.90
51615;DHT22;37695;52.960;6.188;2022-08-03T03:17:52;18.20;99.90
51615;DHT22;37695;52.960;6.188;2022-08-03T03:20:20;18.20;99.90
51615;DHT22;37695;52.960;6.188;2022-08-03T03:22:47;18.10;99.90
51615;DHT22;37695;52.960;6.188;2022-08-03T03:25:14;18.10;99.90
51615;DHT22;37695;52.960;6.188;2022-08-03T03:27:40;18.10;99.90
51615;DHT22;37695;52.960;6.188;2022-08-03T03:30:06;18.10;99.90
51615;DHT22;37695;52.960;6.188;2022-08-03T03:32:33;18.10;99.90
51615;DHT22;37695;52.960;6.188;2022-08-03T03:35:01;18.10;99.90
51615;DHT22;37695;52.960;6.188;2022-08-03T03:37:27;18.10;99.90
51615;DHT22;37695;52.960;6.188;2022-08-03T03:39:53;18.10;99.90
51615;DHT22;37695;52.960;6.188;2022-08-03T03:42:19;18.10;99.90
51615;DHT22;37695;52.960;6.188;2022-08-03T03:44:45;18.10;99.90
51615;DHT22;37695;52.960;6.188;2022-08-03T03:47:11;18.10;99.90
51615;DHT22;37695;52.960;6.188;2022-08-03T03:49:37;18.10;99.90
51615;DHT22;37695;52.960;6.188;2022-08-03T03:52:03;18.00;99.90
51615;DHT22;37695;52.960;6.188;2022-08-03T03:54:42;18.10;99.90
51615;DHT22;37695;52.960;6.188;2022-08-03T03:57:09;18.00;99.90
51615;DHT22;37695;52.960;6.188;2022-08-03T03:59:42;18.00;99.90
51615;DHT22;37695;52.960;6.188;2022-08-03T04:02:09;18.00;99.90
51615;DHT22;37695;52.960;6.188;2022-08-03T04:04:35;18.00;99.90
51615;DHT22;37695;52.960;6.188;2022-08-03T04:07:19;18.00;99.90
51615;DHT22;37695;52.960;6.188;2022-08-03T04:10:12;18.00;99.90
51615;DHT22;37695;52.960;6.188;2022-08-03T04:12:58;18.00;99.90
51615;DHT22;37695;52.960;6.188;2022-08-03T04:15:27;18.00;99.90
51615;DHT22;37695;52.960;6.188;2022-08-03T04:17:55;18.00;99.90
51615;DHT22;37695;52.960;6.188;2022-08-03T04:20:22;18.00;99.90
51615;DHT22;37695;52.960;6.188;2022-08-03T04:22:50;18.00;99.90
51615;DHT22;37695;52.960;6.188;2022-08-03T04:25:17;18.00;99.90
51615;DHT22;37695;52.960;6.188;2022-08-03T04:27:45;18.00;99.90
51615;DHT22;37695;52.960;6.188;2022-08-03T04:30:13;18.00;99.90
51615;DHT22;37695;52.960;6.188;2022-08-03T04:32:39;18.00;99.90
51615;DHT22;37695;52.960;6.188;2022-08-03T04:35:07;18.10;99.90
51615;DHT22;37695;52.960;6.188;2022-08-03T04:37:43;18.10;99.90
51615;DHT22;37695;52.960;6.188;2022-08-03T04:40:25;18.10;99.90
51615;DHT22;37695;52.960;6.188;2022-08-03T04:42:53;18.10;99.90
51615;DHT22;37695;52.960;6.188;2022-08-03T04:45:20;18.20;99.90
51615;DHT22;37695;52.960;6.188;2022-08-03T04:47:48;18.10;99.90
51615;DHT22;37695;52.960;6.188;2022-08-03T04:50:14;18.10;99.90
51615;DHT22;37695;52.960;6.188;2022-08-03T04:52:41;18.20;99.90
51615;DHT22;37695;52.960;6.188;2022-08-03T04:55:07;18.20;99.90
51615;DHT22;37695;52.960;6.188;2022-08-03T04:57:32;18.20;99.90
51615;DHT22;37695;52.960;6.188;2022-08-03T04:59:58;18.20;99.90
51615;DHT22;37695;52.960;6.188;2022-08-03T05:02:23;18.20;99.90
51615;DHT22;37695;52.960;6.188;2022-08-03T05:04:49;18.30;99.90
51615;DHT22;37695;52.960;6.188;2022-08-03T05:07:16;18.30;99.90
51615;DHT22;37695;52.960;6.188;2022-08-03T05:09:42;18.40;99.90
51615;DHT22;37695;52.960;6.188;2022-08-03T05:12:09;18.40;99.90
51615;DHT22;37695;52.960;6.188;2022-08-03T05:14:36;18.40;99.90
51615;DHT22;37695;52.960;6.188;2022-08-03T05:17:05;18.50;99.90
51615;DHT22;37695;52.960;6.188;2022-08-03T05:19:31;18.60;99.90
51615;DHT22;37695;52.960;6.188;2022-08-03T05:21:57;18.60;99.90
51615;DHT22;37695;52.960;6.188;2022-08-03T05:24:22;18.60;99.90
51615;DHT22;37695;52.960;6.188;2022-08-03T05:26:48;18.70;99.90
51615;DHT22;37695;52.960;6.188;2022-08-03T05:29:14;18.70;99.90
51615;DHT22;37695;52.960;6.188;2022-08-03T05:31:39;18.70;99.90
51615;DHT22;37695;52.960;6.188;2022-08-03T05:34:05;18.80;99.90
51615;DHT22;37695;52.960;6.188;2022-08-03T05:36:30;18.80;99.90
51615;DHT22;37695;52.960;6.188;2022-08-03T05:38:56;18.80;99.90
51615;DHT22;37695;52.960;6.188;2022-08-03T05:41:22;18.80;99.90
51615;DHT22;37695;52.960;6.188;2022-08-03T05:43:48;18.80;99.90
51615;DHT22;37695;52.960;6.188;2022-08-03T05:46:13;18.80;99.90
51615;DHT22;37695;52.960;6.188;2022-08-03T05:48:40;18.80;99.90
51615;DHT22;37695;52.960;6.188;2022-08-03T05:51:05;18.80;99.90
51615;DHT22;37695;52.960;6.188;2022-08-03T05:53:35;18.90;99.90
51615;DHT22;37695;52.960;6.188;2022-08-03T05:56:01;18.90;99.90
51615;DHT22;37695;52.960;6.188;2022-08-03T05:58:27;18.90;99.90
51615;DHT22;37695;52.960;6.188;2022-08-03T06:00:52;19.00;99.90
51615;DHT22;37695;52.960;6.188;2022-08-03T06:03:18;19.10;99.90
51615;DHT22;37695;52.960;6.188;2022-08-03T06:05:44;19.10;99.90
51615;DHT22;37695;52.960;6.188;2022-08-03T06:08:10;19.20;99.90
51615;DHT22;37695;52.960;6.188;2022-08-03T06:10:36;19.30;99.90
51615;DHT22;37695;52.960;6.188;2022-08-03T06:13:01;19.30;99.90
51615;DHT22;37695;52.960;6.188;2022-08-03T06:15:27;19.40;99.90
51615;DHT22;37695;52.960;6.188;2022-08-03T06:17:52;19.40;99.90
51615;DHT22;37695;52.960;6.188;2022-08-03T06:20:19;19.40;99.90
51615;DHT22;37695;52.960;6.188;2022-08-03T06:22:46;19.50;99.90
51615;DHT22;37695;52.960;6.188;2022-08-03T06:25:12;19.50;99.90
51615;DHT22;37695;52.960;6.188;2022-08-03T06:27:38;19.60;99.90
51615;DHT22;37695;52.960;6.188;2022-08-03T06:30:05;19.60;99.90
51615;DHT22;37695;52.960;6.188;2022-08-03T06:32:31;19.70;99.90
51615;DHT22;37695;52.960;6.188;2022-08-03T06:34:58;19.70;99.90
51615;DHT22;37695;52.960;6.188;2022-08-03T06:37:24;19.70;99.90
51615;DHT22;37695;52.960;6.188;2022-08-03T06:39:51;19.80;99.90
51615;DHT22;37695;52.960;6.188;2022-08-03T06:42:17;19.90;99.90
51615;DHT22;37695;52.960;6.188;2022-08-03T06:44:42;20.00;99.90
51615;DHT22;37695;52.960;6.188;2022-08-03T06:47:08;20.00;99.90
51615;DHT22;37695;52.960;6.188;2022-08-03T06:49:34;20.10;99.90
51615;DHT22;37695;52.960;6.188;2022-08-03T06:51:59;20.10;99.90
51615;DHT22;37695;52.960;6.188;2022-08-03T06:54:25;20.10;99.90
51615;DHT22;37695;52.960;6.188;2022-08-03T06:56:51;20.20;99.90
51615;DHT22;37695;52.960;6.188;2022-08-03T06:59:16;20.20;99.90
51615;DHT22;37695;52.960;6.188;2022-08-03T07:01:42;20.20;99.90
51615;DHT22;37695;52.960;6.188;2022-08-03T07:04:07;20.30;99.90
51615;DHT22;37695;52.960;6.188;2022-08-03T07:06:33;20.30;99.90
51615;DHT22;37695;52.960;6.188;2022-08-03T07:08:59;20.40;99.90
51615;DHT22;37695;52.960;6.188;2022-08-03T07:11:25;20.50;99.90
51615;DHT22;37695;52.960;6.188;2022-08-03T07:13:50;20.60;99.90
51615;DHT22;37695;52.960;6.188;2022-08-03T07:16:16;20.80;99.90
51615;DHT22;37695;52.960;6.188;2022-08-03T07:18:41;20.90;99.90
51615;DHT22;37695;52.960;6.188;2022-08-03T07:21:07;21.00;99.90
51615;DHT22;37695;52.960;6.188;2022-08-03T07:23:35;21.10;99.90
51615;DHT22;37695;52.960;6.188;2022-08-03T07:26:00;21.10;99.90
51615;DHT22;37695;52.960;6.188;2022-08-03T07:28:26;21.20;99.90
51615;DHT22;37695;52.960;6.188;2022-08-03T07:30:52;21.30;99.90
51615;DHT22;37695;52.960;6.188;2022-08-03T07:33:18;21.50;99.90
51615;DHT22;37695;52.960;6.188;2022-08-03T07:35:44;21.50;99.90
51615;DHT22;37695;52.960;6.188;2022-08-03T07:38:09;21.60;99.90
51615;DHT22;37695;52.960;6.188;2022-08-03T07:40:35;21.60;99.90
51615;DHT22;37695;52.960;6.188;2022-08-03T07:43:00;21.70;99.90
51615;DHT22;37695;52.960;6.188;2022-08-03T07:45:29;21.80;99.90
51615;DHT22;37695;52.960;6.188;2022-08-03T07:47:54;21.90;99.90
51615;DHT22;37695;52.960;6.188;2022-08-03T07:50:20;21.90;99.90
51615;DHT22;37695;52.960;6.188;2022-08-03T07:52:46;22.00;99.90
51615;DHT22;37695;52.960;6.188;2022-08-03T07:55:12;22.10;99.90
51615;DHT22;37695;52.960;6.188;2022-08-03T07:57:38;22.10;99.90
51615;DHT22;37695;52.960;6.188;2022-08-03T08:00:06;22.20;99.90
51615;DHT22;37695;52.960;6.188;2022-08-03T08:02:33;22.30;99.90
51615;DHT22;37695;52.960;6.188;2022-08-03T08:04:59;22.30;99.90
51615;DHT22;37695;52.960;6.188;2022-08-03T08:07:24;22.40;99.90
51615;DHT22;37695;52.960;6.188;2022-08-03T08:09:50;22.50;99.90
51615;DHT22;37695;52.960;6.188;2022-08-03T08:12:16;22.70;99.90
51615;DHT22;37695;52.960;6.188;2022-08-03T08:14:42;22.80;99.90
51615;DHT22;37695;52.960;6.188;2022-08-03T08:17:10;22.90;99.90
51615;DHT22;37695;52.960;6.188;2022-08-03T08:19:35;22.80;99.90
51615;DHT22;37695;52.960;6.188;2022-08-03T08:22:01;22.90;99.90
51615;DHT22;37695;52.960;6.188;2022-08-03T08:24:26;23.00;99.90
51615;DHT22;37695;52.960;6.188;2022-08-03T08:26:55;23.10;99.90
51615;DHT22;37695;52.960;6.188;2022-08-03T08:29:21;23.30;99.90
51615;DHT22;37695;52.960;6.188;2022-08-03T08:31:48;23.30;99.90
51615;DHT22;37695;52.960;6.188;2022-08-03T08:34:15;23.40;99.90
51615;DHT22;37695;52.960;6.188;2022-08-03T08:36:40;23.50;99.90
51615;DHT22;37695;52.960;6.188;2022-08-03T08:39:06;23.50;99.90
51615;DHT22;37695;52.960;6.188;2022-08-03T08:41:32;23.50;99.90
51615;DHT22;37695;52.960;6.188;2022-08-03T08:44:01;23.50;99.90
51615;DHT22;37695;52.960;6.188;2022-08-03T08:46:31;23.50;99.90
51615;DHT22;37695;52.960;6.188;2022-08-03T08:48:58;23.40;99.90
51615;DHT22;37695;52.960;6.188;2022-08-03T08:51:28;23.50;99.90
51615;DHT22;37695;52.960;6.188;2022-08-03T08:53:55;23.70;99.90
51615;DHT22;37695;52.960;6.188;2022-08-03T08:56:24;24.00;99.90
51615;DHT22;37695;52.960;6.188;2022-08-03T08:58:57;24.10;99.90
51615;DHT22;37695;52.960;6.188;2022-08-03T09:01:23;24.30;99.90
51615;DHT22;37695;52.960;6.188;2022-08-03T09:03:49;24.40;99.90
51615;DHT22;37695;52.960;6.188;2022-08-03T09:06:15;24.10;99.90
51615;DHT22;37695;52.960;6.188;2022-08-03T09:08:41;23.90;99.90
51615;DHT22;37695;52.960;6.188;2022-08-03T09:11:07;23.70;99.90
51615;DHT22;37695;52.960;6.188;2022-08-03T09:13:33;23.80;99.90
51615;DHT22;37695;52.960;6.188;2022-08-03T09:16:21;23.70;99.90
51615;DHT22;37695;52.960;6.188;2022-08-03T09:18:52;23.70;99.90
51615;DHT22;37695;52.960;6.188;2022-08-03T09:21:26;23.70;99.90
51615;DHT22;37695;52.960;6.188;2022-08-03T09:23:55;23.90;99.90
51615;DHT22;37695;52.960;6.188;2022-08-03T09:26:25;24.10;99.90
51615;DHT22;37695;52.960;6.188;2022-08-03T09:29:09;24.30;99.90
51615;DHT22;37695;52.960;6.188;2022-08-03T09:31:40;24.60;99.90
51615;DHT22;37695;52.960;6.188;2022-08-03T09:34:08;24.70;99.90
51615;DHT22;37695;52.960;6.188;2022-08-03T09:36:43;24.90;99.90
51615;DHT22;37695;52.960;6.188;2022-08-03T09:39:15;24.90;99.90
51615;DHT22;37695;52.960;6.188;2022-08-03T09:41:43;25.00;99.90
51615;DHT22;37695;52.960;6.188;2022-08-03T09:44:10;25.00;99.90
51615;DHT22;37695;52.960;6.188;2022-08-03T09:46:55;25.00;99.90
51615;DHT22;37695;52.960;6.188;2022-08-03T09:49:21;24.90;99.90
51615;DHT22;37695;52.960;6.188;2022-08-03T09:51:47;25.10;99.90
51615;DHT22;37695;52.960;6.188;2022-08-03T09:54:28;25.10;99.90
51615;DHT22;37695;52.960;6.188;2022-08-03T09:56:54;25.20;99.90
51615;DHT22;37695;52.960;6.188;2022-08-03T09:59:25;25.30;99.90
51615;DHT22;37695;52.960;6.188;2022-08-03T10:01:51;25.40;99.90
51615;DHT22;37695;52.960;6.188;2022-08-03T10:04:17;25.40;99.90
51615;DHT22;37695;52.960;6.188;2022-08-03T10:07:07;25.40;99.90
51615;DHT22;37695;52.960;6.188;2022-08-03T10:09:34;25.60;99.90
51615;DHT22;37695;52.960;6.188;2022-08-03T10:12:10;25.70;99.90
51615;DHT22;37695;52.960;6.188;2022-08-03T10:14:38;25.90;99.90
51615;DHT22;37695;52.960;6.188;2022-08-03T10:17:04;26.10;99.90
51615;DHT22;37695;52.960;6.188;2022-08-03T10:19:30;26.20;99.90
51615;DHT22;37695;52.960;6.188;2022-08-03T10:22:02;26.30;99.90
51615;DHT22;37695;52.960;6.188;2022-08-03T10:24:29;26.30;99.90
51615;DHT22;37695;52.960;6.188;2022-08-03T10:27:06;26.50;99.90
51615;DHT22;37695;52.960;6.188;2022-08-03T10:29:52;26.60;99.90
51615;DHT22;37695;52.960;6.188;2022-08-03T10:32:41;26.70;99.90
51615;DHT22;37695;52.960;6.188;2022-08-03T10:35:12;26.80;99.90
51615;DHT22;37695;52.960;6.188;2022-08-03T10:37:43;26.90;99.90
51615;DHT22;37695;52.960;6.188;2022-08-03T10:40:13;26.80;99.90
51615;DHT22;37695;52.960;6.188;2022-08-03T10:42:44;26.90;99.90
51615;DHT22;37695;52.960;6.188;2022-08-03T10:45:18;27.00;99.90
51615;DHT22;37695;52.960;6.188;2022-08-03T10:47:49;26.80;99.90
51615;DHT22;37695;52.960;6.188;2022-08-03T10:50:16;26.70;99.90
51615;DHT22;37695;52.960;6.188;2022-08-03T10:55:43;26.90;99.90
51615;DHT22;37695;52.960;6.188;2022-08-03T11:01:10;26.70;99.90
51615;DHT22;37695;52.960;6.188;2022-08-03T11:06:30;26.70;99.90
51615;DHT22;37695;52.960;6.188;2022-08-03T11:11:34;27.00;99.90
51615;DHT22;37695;52.960;6.188;2022-08-03T11:16:45;27.40;99.90
51615;DHT22;37695;52.960;6.188;2022-08-03T11:19:13;27.60;99.90
51615;DHT22;37695;52.960;6.188;2022-08-03T11:35:23;27.40;99.90
51615;DHT22;37695;52.960;6.188;2022-08-03T11:40:46;27.60;99.90
51615;DHT22;37695;52.960;6.188;2022-08-03T11:46:06;27.90;99.90
51615;DHT22;37695;52.960;6.188;2022-08-03T11:51:05;28.10;99.90
51615;DHT22;37695;52.960;6.188;2022-08-03T11:53:31;28.20;99.90
51615;DHT22;37695;52.960;6.188;2022-08-03T11:56:00;28.20;99.90
51615;DHT22;37695;52.960;6.188;2022-08-03T11:58:27;28.30;99.90
51615;DHT22;37695;52.960;6.188;2022-08-03T12:01:05;28.30;99.90
51615;DHT22;37695;52.960;6.188;2022-08-03T12:03:33;28.30;99.90
51615;DHT22;37695;52.960;6.188;2022-08-03T12:05:59;28.30;99.90
51615;DHT22;37695;52.960;6.188;2022-08-03T12:08:30;28.30;99.90
51615;DHT22;37695;52.960;6.188;2022-08-03T12:10:57;28.30;99.90
51615;DHT22;37695;52.960;6.188;2022-08-03T12:13:24;28.30;99.90
51615;DHT22;37695;52.960;6.188;2022-08-03T12:15:56;28.30;99.90
51615;DHT22;37695;52.960;6.188;2022-08-03T12:18:22;28.30;99.90
51615;DHT22;37695;52.960;6.188;2022-08-03T12:20:51;28.40;99.90
51615;DHT22;37695;52.960;6.188;2022-08-03T12:23:17;28.60;99.90
51615;DHT22;37695;52.960;6.188;2022-08-03T12:25:45;28.70;99.90
51615;DHT22;37695;52.960;6.188;2022-08-03T12:30:50;28.70;99.90
51615;DHT22;37695;52.960;6.188;2022-08-03T12:33:20;28.70;99.90
51615;DHT22;37695;52.960;6.188;2022-08-03T12:35:47;28.70;99.90
51615;DHT22;37695;52.960;6.188;2022-08-03T12:38:18;28.50;99.90
51615;DHT22;37695;52.960;6.188;2022-08-03T12:40:45;28.60;99.90
51615;DHT22;37695;52.960;6.188;2022-08-03T12:43:12;28.50;99.90
51615;DHT22;37695;52.960;6.188;2022-08-03T12:45:38;28.30;99.90
51615;DHT22;37695;52.960;6.188;2022-08-03T12:48:08;28.20;99.90
51615;DHT22;37695;52.960;6.188;2022-08-03T12:50:36;28.10;99.90
51615;DHT22;37695;52.960;6.188;2022-08-03T12:53:05;28.30;99.90
51615;DHT22;37695;52.960;6.188;2022-08-03T12:55:31;28.30;99.90
51615;DHT22;37695;52.960;6.188;2022-08-03T12:58:02;28.50;99.90
51615;DHT22;37695;52.960;6.188;2022-08-03T13:00:28;28.50;99.90
51615;DHT22;37695;52.960;6.188;2022-08-03T13:02:59;28.40;99.90
51615;DHT22;37695;52.960;6.188;2022-08-03T13:05:25;28.40;99.90
51615;DHT22;37695;52.960;6.188;2022-08-03T13:07:50;28.30;99.90
51615;DHT22;37695;52.960;6.188;2022-08-03T13:10:32;28.40;99.90
51615;DHT22;37695;52.960;6.188;2022-08-03T13:12:59;28.30;99.90
51615;DHT22;37695;52.960;6.188;2022-08-03T13:15:28;28.20;99.90
51615;DHT22;37695;52.960;6.188;2022-08-03T13:17:55;28.20;99.90
51615;DHT22;37695;52.960;6.188;2022-08-03T13:20:21;28.20;99.90
51615;DHT22;37695;52.960;6.188;2022-08-03T13:22:47;28.30;99.90
51615;DHT22;37695;52.960;6.188;2022-08-03T13:25:13;28.40;99.90
51615;DHT22;37695;52.960;6.188;2022-08-03T13:27:39;28.40;99.90
51615;DHT22;37695;52.960;6.188;2022-08-03T13:30:06;28.50;99.90
51615;DHT22;37695;52.960;6.188;2022-08-03T13:32:32;28.50;99.90
51615;DHT22;37695;52.960;6.188;2022-08-03T13:34:58;28.50;99.90
51615;DHT22;37695;52.960;6.188;2022-08-03T13:37:24;28.30;99.80
51615;DHT22;37695;52.960;6.188;2022-08-03T13:39:49;28.30;99.80
51615;DHT22;37695;52.960;6.188;2022-08-03T13:42:15;28.20;99.50
51615;DHT22;37695;52.960;6.188;2022-08-03T13:44:41;28.10;99.20
51615;DHT22;37695;52.960;6.188;2022-08-03T13:47:07;28.10;99.20
51615;DHT22;37695;52.960;6.188;2022-08-03T13:49:32;28.20;99.20
51615;DHT22;37695;52.960;6.188;2022-08-03T13:51:58;28.20;99.30
51615;DHT22;37695;52.960;6.188;2022-08-03T13:54:24;28.20;99.20
51615;DHT22;37695;52.960;6.188;2022-08-03T13:56:49;28.10;99.20
51615;DHT22;37695;52.960;6.188;2022-08-03T13:59:22;28.10;99.10
51615;DHT22;37695;52.960;6.188;2022-08-03T14:01:49;28.10;98.90
51615;DHT22;37695;52.960;6.188;2022-08-03T14:04:16;28.10;99.10
51615;DHT22;37695;52.960;6.188;2022-08-03T14:06:42;28.00;99.10
51615;DHT22;37695;52.960;6.188;2022-08-03T14:09:11;28.00;99.10
51615;DHT22;37695;52.960;6.188;2022-08-03T14:11:38;27.90;99.10
51615;DHT22;37695;52.960;6.188;2022-08-03T14:14:04;27.90;99.00
51615;DHT22;37695;52.960;6.188;2022-08-03T14:16:29;27.80;99.00
51615;DHT22;37695;52.960;6.188;2022-08-03T14:18:55;27.70;98.70
51615;DHT22;37695;52.960;6.188;2022-08-03T14:21:20;27.70;98.80
51615;DHT22;37695;52.960;6.188;2022-08-03T14:23:46;27.70;98.90
51615;DHT22;37695;52.960;6.188;2022-08-03T14:26:12;27.70;99.20
51615;DHT22;37695;52.960;6.188;2022-08-03T14:28:39;27.80;99.20
51615;DHT22;37695;52.960;6.188;2022-08-03T14:31:05;27.80;99.20
51615;DHT22;37695;52.960;6.188;2022-08-03T14:33:31;27.70;99.00
51615;DHT22;37695;52.960;6.188;2022-08-03T14:35:56;27.60;99.10
51615;DHT22;37695;52.960;6.188;2022-08-03T14:38:22;27.70;99.10
51615;DHT22;37695;52.960;6.188;2022-08-03T14:40:48;27.70;99.10
51615;DHT22;37695;52.960;6.188;2022-08-03T14:43:15;27.70;99.10
51615;DHT22;37695;52.960;6.188;2022-08-03T14:45:42;27.70;98.90
51615;DHT22;37695;52.960;6.188;2022-08-03T14:48:08;27.60;98.80
51615;DHT22;37695;52.960;6.188;2022-08-03T14:50:34;27.40;98.90
51615;DHT22;37695;52.960;6.188;2022-08-03T14:52:59;27.40;99.30
51615;DHT22;37695;52.960;6.188;2022-08-03T14:55:25;27.40;99.40
51615;DHT22;37695;52.960;6.188;2022-08-03T14:57:50;27.50;99.20
51615;DHT22;37695;52.960;6.188;2022-08-03T15:00:16;27.50;98.90
51615;DHT22;37695;52.960;6.188;2022-08-03T15:02:41;27.50;98.90
51615;DHT22;37695;52.960;6.188;2022-08-03T15:05:08;27.50;98.90
51615;DHT22;37695;52.960;6.188;2022-08-03T15:07:35;27.60;98.70
51615;DHT22;37695;52.960;6.188;2022-08-03T15:10:00;27.60;98.50
51615;DHT22;37695;52.960;6.188;2022-08-03T15:12:26;27.60;98.00
51615;DHT22;37695;52.960;6.188;2022-08-03T15:14:51;27.80;98.00
51615;DHT22;37695;52.960;6.188;2022-08-03T15:17:17;27.60;98.20
51615;DHT22;37695;52.960;6.188;2022-08-03T15:19:43;27.60;98.20
51615;DHT22;37695;52.960;6.188;2022-08-03T15:22:08;27.60;98.20
51615;DHT22;37695;52.960;6.188;2022-08-03T15:24:34;27.60;98.10
51615;DHT22;37695;52.960;6.188;2022-08-03T15:26:59;27.60;98.10
51615;DHT22;37695;52.960;6.188;2022-08-03T15:29:25;27.60;98.20
51615;DHT22;37695;52.960;6.188;2022-08-03T15:31:51;27.60;98.00
51615;DHT22;37695;52.960;6.188;2022-08-03T15:34:17;27.60;98.20
51615;DHT22;37695;52.960;6.188;2022-08-03T15:36:43;27.60;98.00
51615;DHT22;37695;52.960;6.188;2022-08-03T15:39:09;27.60;97.90
51615;DHT22;37695;52.960;6.188;2022-08-03T15:41:34;27.60;98.00
51615;DHT22;37695;52.960;6.188;2022-08-03T15:44:01;27.70;97.90
51615;DHT22;37695;52.960;6.188;2022-08-03T15:46:26;27.70;97.90
51615;DHT22;37695;52.960;6.188;2022-08-03T15:48:52;27.60;97.90
51615;DHT22;37695;52.960;6.188;2022-08-03T15:51:18;27.60;97.70
51615;DHT22;37695;52.960;6.188;2022-08-03T15:53:43;27.50;97.60
51615;DHT22;37695;52.960;6.188;2022-08-03T15:56:09;27.30;97.60
51615;DHT22;37695;52.960;6.188;2022-08-03T15:58:36;27.40;97.80
51615;DHT22;37695;52.960;6.188;2022-08-03T16:01:03;27.40;97.80
51615;DHT22;37695;52.960;6.188;2022-08-03T16:03:29;27.30;98.00
51615;DHT22;37695;52.960;6.188;2022-08-03T16:06:03;27.20;98.00
51615;DHT22;37695;52.960;6.188;2022-08-03T16:08:29;27.20;98.10
51615;DHT22;37695;52.960;6.188;2022-08-03T16:10:56;27.20;98.20
51615;DHT22;37695;52.960;6.188;2022-08-03T16:13:22;27.10;98.20
51615;DHT22;37695;52.960;6.188;2022-08-03T16:15:49;27.10;98.30
51615;DHT22;37695;52.960;6.188;2022-08-03T16:18:14;27.10;98.60
51615;DHT22;37695;52.960;6.188;2022-08-03T16:20:40;27.00;98.80
51615;DHT22;37695;52.960;6.188;2022-08-03T16:23:06;27.10;98.90
51615;DHT22;37695;52.960;6.188;2022-08-03T16:25:31;27.00;99.00